createdAt,value
2018-02-24T00:00:55.208Z,55.60
2018-02-24T00:03:23.398Z,56.10
2018-02-24T00:05:51.545Z,56.40
2018-02-24T00:08:19.705Z,56.40
2018-02-24T00:10:48.640Z,56.30
2018-02-24T00:13:16.780Z,56.20
2018-02-24T00:15:44.937Z,56.30
2018-02-24T00:18:13.841Z,56.80
2018-02-24T00:20:42.817Z,57.50
2018-02-24T00:23:10.912Z,57.50
2018-02-24T00:25:39.068Z,57.70
2018-02-24T00:28:07.958Z,57.30
2018-02-24T00:30:36.886Z,57.40
2018-02-24T00:33:05.026Z,57.40
2018-02-24T00:35:33.216Z,57.60
2018-02-24T00:38:01.356Z,57.60
2018-02-24T00:40:29.518Z,57.70
2018-02-24T00:42:57.654Z,57.60
2018-02-24T00:45:25.813Z,57.60
2018-02-24T00:47:53.963Z,58.00
2018-02-24T00:50:22.894Z,58.30
2018-02-24T00:52:51.034Z,58.30
2018-02-24T00:55:19.212Z,58.20
2018-02-24T00:57:47.352Z,58.20
2018-02-24T01:00:15.493Z,58.20
2018-02-24T01:02:43.640Z,58.20
2018-02-24T01:05:11.777Z,58.30
2018-02-24T01:07:39.950Z,58.50
2018-02-24T01:10:08.092Z,58.50
2018-02-24T01:12:36.249Z,58.80
2018-02-24T01:15:05.148Z,58.40
2018-02-24T01:17:33.301Z,58.40
2018-02-24T01:20:01.448Z,58.50
2018-02-24T01:22:30.381Z,58.30
2018-02-24T01:24:58.533Z,58.30
2018-02-24T01:27:26.716Z,58.70
2018-02-24T01:29:54.862Z,59.10
2018-02-24T01:32:23.788Z,59.20
2018-02-24T01:34:51.928Z,59.20
2018-02-24T01:37:20.851Z,59.60
2018-02-24T01:39:48.997Z,59.60
2018-02-24T01:42:17.161Z,60.20
2018-02-24T01:44:46.062Z,59.90
2018-02-24T01:47:14.961Z,59.90
2018-02-24T01:49:43.168Z,59.90
2018-02-24T01:52:11.373Z,60.00
2018-02-24T01:54:39.573Z,60.00
2018-02-24T01:57:11.641Z,60.50
2018-02-24T01:59:39.944Z,60.50
2018-02-24T02:02:08.084Z,60.50
2018-02-24T02:04:36.305Z,60.80
2018-02-24T02:07:04.465Z,60.90
2018-02-24T02:09:32.624Z,61.10
2018-02-24T02:12:00.761Z,61.10
2018-02-24T02:14:28.954Z,61.40
2018-02-24T02:16:57.105Z,61.70
2018-02-24T02:19:25.309Z,61.60
2018-02-24T02:21:53.454Z,62.20
2018-02-24T02:24:21.617Z,62.10
2018-02-24T02:26:49.742Z,62.00
2018-02-24T02:29:17.880Z,62.10
2018-02-24T02:31:46.796Z,62.80
2018-02-24T02:34:14.949Z,62.80
2018-02-24T02:36:43.876Z,63.40
2018-02-24T02:39:12.031Z,64.20
2018-02-24T02:41:40.197Z,63.30
2018-02-24T02:44:09.100Z,63.20
2018-02-24T02:46:37.265Z,63.10
2018-02-24T02:49:05.405Z,63.40
2018-02-24T02:51:33.586Z,63.90
2018-02-24T02:54:02.515Z,63.80
2018-02-24T02:56:30.673Z,63.80
2018-02-24T02:58:58.805Z,63.40
2018-02-24T03:01:26.972Z,63.70
2018-02-24T03:03:55.109Z,63.80
2018-02-24T03:06:23.245Z,63.70
2018-02-24T03:08:52.172Z,63.90
2018-02-24T03:11:20.331Z,63.90
2018-02-24T03:13:48.506Z,63.90
2018-02-24T03:16:16.645Z,64.20
2018-02-24T03:18:44.808Z,64.20
2018-02-24T03:21:12.949Z,64.40
2018-02-24T03:23:41.096Z,64.60
2018-02-24T03:26:09.229Z,64.20
2018-02-24T03:28:37.396Z,64.40
2018-02-24T03:31:05.536Z,64.30
2018-02-24T03:33:33.704Z,64.30
2018-02-24T03:36:01.841Z,64.20
2018-02-24T03:38:30.773Z,64.40
2018-02-24T03:40:58.909Z,64.30
2018-02-24T03:43:27.839Z,64.50
2018-02-24T03:45:56.317Z,64.50
2018-02-24T03:48:24.461Z,64.30
2018-02-24T03:50:53.389Z,64.70
2018-02-24T03:53:21.529Z,64.60
2018-02-24T03:55:49.684Z,64.80
2018-02-24T03:58:18.600Z,65.30
2018-02-24T04:00:46.764Z,65.30
2018-02-24T04:03:14.888Z,65.10
2018-02-24T04:05:43.054Z,65.20
2018-02-24T04:08:11.188Z,65.20
2018-02-24T04:10:39.354Z,65.20
2018-02-24T04:13:07.506Z,65.20
2018-02-24T04:15:35.669Z,65.50
2018-02-24T04:18:03.804Z,65.50
2018-02-24T04:20:31.961Z,65.40
2018-02-24T04:23:00.125Z,65.60
2018-02-24T04:25:28.330Z,65.80
2018-02-24T04:27:56.473Z,66.10
2018-02-24T04:30:24.604Z,66.00
2018-02-24T04:32:52.752Z,66.80
2018-02-24T04:35:20.884Z,66.30
2018-02-24T04:37:49.805Z,66.20
2018-02-24T04:40:17.948Z,66.20
2018-02-24T04:42:46.868Z,66.40
2018-02-24T04:45:15.007Z,66.20
2018-02-24T04:47:43.156Z,66.50
2018-02-24T04:50:11.297Z,66.70
2018-02-24T04:52:39.454Z,67.50
2018-02-24T04:55:07.588Z,67.20
2018-02-24T04:57:36.537Z,66.90
2018-02-24T05:00:04.664Z,66.90
2018-02-24T05:02:33.581Z,67.20
2018-02-24T05:05:01.716Z,67.10
2018-02-24T05:07:30.667Z,67.40
2018-02-24T05:09:58.797Z,67.40
2018-02-24T05:12:27.701Z,67.80
2018-02-24T05:14:55.856Z,67.80
2018-02-24T05:17:24.779Z,68.60
2018-02-24T05:19:52.944Z,69.30
2018-02-24T05:22:21.102Z,68.90
2018-02-24T05:24:49.282Z,68.90
2018-02-24T05:27:17.424Z,68.90
2018-02-24T05:29:46.376Z,69.30
2018-02-24T05:32:14.597Z,69.70
2018-02-24T05:34:43.577Z,69.30
2018-02-24T05:37:11.766Z,69.20
2018-02-24T05:39:39.966Z,69.60
2018-02-24T05:42:08.101Z,69.50
2018-02-24T05:44:36.256Z,70.20
2018-02-24T05:47:04.396Z,70.60
2018-02-24T05:49:32.556Z,70.20
2018-02-24T05:52:00.688Z,70.00
2018-02-24T05:54:28.844Z,70.30
2018-02-24T05:56:57.002Z,70.20
2018-02-24T05:59:25.149Z,70.00
2018-02-24T06:01:53.308Z,70.20
2018-02-24T06:04:21.468Z,69.90
2018-02-24T06:06:50.399Z,69.50
2018-02-24T06:09:18.542Z,69.40
2018-02-24T06:11:47.468Z,69.10
2018-02-24T06:14:15.609Z,69.10
2018-02-24T06:16:43.769Z,69.40
2018-02-24T06:19:12.677Z,69.20
2018-02-24T06:21:40.844Z,69.10
2018-02-24T06:24:08.978Z,69.40
2018-02-24T06:26:37.132Z,68.90
2018-02-24T06:29:05.265Z,69.10
2018-02-24T06:31:33.429Z,69.10
2018-02-24T06:34:02.337Z,68.30
2018-02-24T06:36:30.501Z,68.20
2018-02-24T06:38:58.633Z,68.40
2018-02-24T06:41:26.804Z,68.40
2018-02-24T06:43:54.949Z,67.30
2018-02-24T06:46:23.117Z,67.60
2018-02-24T06:48:51.312Z,67.20
2018-02-24T06:51:19.480Z,66.70
2018-02-24T06:53:47.623Z,66.20
2018-02-24T06:56:15.777Z,66.50
2018-02-24T06:58:44.674Z,65.80
2018-02-24T07:01:13.606Z,65.50
2018-02-24T07:03:41.742Z,65.50
2018-02-24T07:06:10.674Z,64.40
2018-02-24T07:08:38.818Z,64.40
2018-02-24T07:11:06.973Z,64.60
2018-02-24T07:13:35.885Z,63.80
2018-02-24T07:16:04.045Z,63.70
2018-02-24T07:18:32.204Z,62.50
2018-02-24T07:21:01.129Z,62.20
2018-02-24T07:23:29.269Z,62.10
2018-02-24T07:25:58.317Z,60.90
2018-02-24T07:28:26.541Z,61.70
2018-02-24T07:30:55.564Z,59.80
2018-02-24T07:33:23.744Z,59.80
2018-02-24T07:35:51.944Z,59.40
2018-02-24T07:38:20.152Z,59.00
2018-02-24T07:40:49.126Z,57.90
2018-02-24T07:43:17.325Z,57.90
2018-02-24T07:45:46.282Z,56.30
2018-02-24T07:48:14.478Z,56.30
2018-02-24T07:50:43.467Z,55.50
2018-02-24T07:53:11.649Z,56.10
2018-02-24T07:55:40.548Z,54.00
2018-02-24T07:58:09.470Z,53.50
2018-02-24T08:00:37.608Z,53.50
2018-02-24T08:03:06.536Z,53.10
2018-02-24T08:05:34.677Z,53.10
2018-02-24T08:08:03.601Z,51.40
2018-02-24T08:10:31.761Z,51.40
2018-02-24T08:12:59.912Z,50.90
2018-02-24T08:15:28.841Z,49.50
2018-02-24T08:17:57.008Z,49.50
2018-02-24T08:20:25.144Z,48.20
2018-02-24T08:22:54.069Z,47.00
2018-02-24T08:25:22.222Z,47.00
2018-02-24T08:27:50.372Z,46.80
2018-02-24T08:30:18.579Z,47.20
2018-02-24T08:32:46.729Z,46.30
2018-02-24T08:35:14.897Z,44.30
2018-02-24T08:37:43.044Z,44.80
2018-02-24T08:40:11.202Z,43.90
2018-02-24T08:42:39.345Z,42.60
2018-02-24T08:45:07.517Z,42.50
2018-02-24T08:47:35.658Z,41.50
2018-02-24T08:50:03.825Z,41.40
2018-02-24T08:52:31.961Z,40.00
2018-02-24T08:55:00.118Z,40.90
2018-02-24T08:57:28.257Z,41.20
2018-02-24T08:59:57.186Z,40.00
2018-02-24T09:02:25.321Z,40.00
2018-02-24T09:04:54.250Z,38.70
2018-02-24T09:07:22.406Z,38.70
2018-02-24T09:09:50.556Z,38.70
2018-02-24T09:12:18.693Z,37.50
2018-02-24T09:14:46.865Z,36.60
2018-02-24T09:17:15.016Z,36.20
2018-02-24T09:19:43.163Z,35.40
2018-02-24T09:22:12.079Z,34.20
2018-02-24T09:24:40.216Z,34.20
2018-02-24T09:27:09.187Z,33.50
2018-02-24T09:29:44.857Z,33.50
2018-02-24T09:32:13.011Z,33.10
2018-02-24T09:34:41.145Z,33.40
2018-02-24T09:37:09.283Z,33.50
2018-02-24T09:39:38.173Z,33.00
2018-02-24T09:42:07.091Z,33.10
2018-02-24T09:44:35.978Z,32.80
2018-02-24T09:47:04.133Z,32.80
2018-02-24T09:49:32.289Z,32.90
2018-02-24T09:52:01.188Z,32.70
2018-02-24T09:54:30.106Z,33.70
2018-02-24T09:56:58.309Z,34.50
2018-02-24T09:59:26.458Z,32.70
2018-02-24T10:01:54.598Z,32.60
2018-02-24T10:04:23.509Z,33.00
2018-02-24T10:06:51.645Z,32.90
2018-02-24T10:09:19.797Z,32.90
2018-02-24T10:11:47.924Z,33.00
2018-02-24T10:14:16.086Z,31.80
2018-02-24T10:16:44.261Z,32.20
2018-02-24T10:19:12.437Z,32.50
2018-02-24T10:21:40.573Z,31.70
2018-02-24T10:24:08.765Z,31.10
2018-02-24T10:26:37.682Z,31.20
2018-02-24T10:29:05.833Z,31.20
2018-02-24T10:31:34.754Z,30.70
2018-02-24T10:34:03.034Z,30.60
2018-02-24T10:36:31.925Z,28.80
2018-02-24T10:39:00.140Z,28.90
2018-02-24T10:41:28.301Z,29.00
2018-02-24T10:43:56.481Z,28.30
2018-02-24T10:46:24.642Z,28.70
2018-02-24T10:49:10.617Z,27.80
2018-02-24T10:51:38.803Z,26.50
2018-02-24T10:54:06.943Z,27.20
2018-02-24T10:56:35.105Z,27.30
2018-02-24T10:59:04.005Z,27.60
2018-02-24T11:01:32.153Z,27.60
2018-02-24T11:04:01.057Z,26.90
2018-02-24T11:06:29.964Z,26.50
2018-02-24T11:08:58.113Z,26.50
2018-02-24T11:11:26.323Z,25.70
2018-02-24T11:13:55.181Z,25.60
2018-02-24T11:16:23.433Z,25.50
2018-02-24T11:18:52.343Z,26.00
2018-02-24T11:21:21.365Z,26.20
2018-02-24T11:23:49.560Z,26.20
2018-02-24T11:26:17.818Z,25.80
2018-02-24T11:28:45.972Z,25.30
2018-02-24T11:31:14.157Z,24.60
2018-02-24T11:33:42.356Z,25.40
2018-02-24T11:36:10.561Z,24.50
2018-02-24T11:38:38.733Z,24.40
2018-02-24T11:41:06.933Z,24.00
2018-02-24T11:43:35.890Z,24.10
2018-02-24T11:46:04.093Z,24.10
2018-02-24T11:48:33.035Z,22.80
2018-02-24T11:51:01.251Z,22.70
2018-02-24T11:53:30.170Z,22.80
2018-02-24T11:56:01.534Z,22.90
2018-02-24T11:58:29.665Z,22.60
2018-02-24T12:00:58.581Z,23.40
2018-02-24T12:03:26.751Z,23.40
2018-02-24T12:05:54.932Z,23.20
2018-02-24T12:08:23.161Z,23.10
2018-02-24T12:10:51.331Z,23.90
2018-02-24T12:13:19.533Z,23.70
2018-02-24T12:15:49.390Z,22.80
2018-02-24T12:18:17.609Z,22.70
2018-02-24T12:20:46.533Z,24.10
2018-02-24T12:23:14.770Z,24.10
2018-02-24T12:25:42.945Z,22.90
2018-02-24T12:28:11.105Z,22.10
2018-02-24T12:30:39.244Z,22.20
2018-02-24T12:33:07.401Z,21.80
2018-02-24T12:35:35.554Z,21.70
2018-02-24T12:38:04.477Z,21.30
2018-02-24T12:40:32.613Z,21.30
2018-02-24T12:43:01.585Z,21.20
2018-02-24T12:45:29.721Z,21.20
2018-02-24T12:47:57.965Z,21.10
2018-02-24T12:50:26.881Z,21.10
2018-02-24T12:52:55.038Z,21.10
2018-02-24T12:55:23.176Z,21.40
2018-02-24T12:57:51.408Z,21.30
2018-02-24T13:00:19.540Z,20.90
2018-02-24T13:02:48.464Z,21.60
2018-02-24T13:05:17.574Z,21.60
2018-02-24T13:07:45.741Z,21.90
2018-02-24T13:10:13.909Z,21.90
2018-02-24T13:12:42.069Z,21.50
2018-02-24T13:15:10.200Z,21.50
2018-02-24T13:17:38.351Z,21.90
2018-02-24T13:20:06.485Z,22.00
2018-02-24T13:22:34.645Z,22.20
2018-02-24T13:25:02.781Z,22.70
2018-02-24T13:27:31.013Z,22.40
2018-02-24T13:29:59.228Z,22.40
2018-02-24T13:32:27.410Z,21.70
2018-02-24T13:34:55.555Z,22.60
2018-02-24T13:37:23.706Z,22.20
2018-02-24T13:39:51.837Z,22.00
2018-02-24T13:42:19.988Z,22.40
2018-02-24T13:44:48.121Z,22.40
2018-02-24T13:47:16.305Z,23.50
2018-02-24T13:49:44.450Z,22.20
2018-02-24T13:52:13.378Z,21.40
2018-02-24T13:54:41.505Z,21.40
2018-02-24T13:57:09.678Z,21.00
2018-02-24T13:59:37.808Z,20.50
2018-02-24T14:02:06.006Z,21.80
2018-02-24T14:04:34.210Z,22.80
2018-02-24T14:07:02.426Z,23.30
2018-02-24T14:09:30.557Z,25.10
2018-02-24T14:11:58.818Z,26.20
2018-02-24T14:14:27.781Z,23.80
2018-02-24T14:16:56.030Z,23.80
2018-02-24T14:19:24.160Z,23.00
2018-02-24T14:21:53.085Z,22.00
2018-02-24T14:24:21.222Z,21.50
2018-02-24T14:26:49.380Z,21.60
2018-02-24T14:29:17.505Z,22.50
2018-02-24T14:31:45.648Z,24.10
2018-02-24T14:34:14.545Z,24.70
2018-02-24T14:36:43.471Z,24.10
2018-02-24T14:39:11.616Z,24.10
2018-02-24T14:41:39.745Z,23.60
2018-02-24T14:44:07.893Z,23.70
2018-02-24T14:46:36.040Z,23.80
2018-02-24T14:49:04.230Z,23.90
2018-02-24T14:51:32.364Z,23.90
2018-02-24T14:54:01.285Z,23.90
2018-02-24T14:56:29.413Z,23.40
2018-02-24T14:58:57.558Z,22.90
2018-02-24T15:01:25.677Z,24.20
2018-02-24T15:03:54.589Z,26.30
2018-02-24T15:06:22.726Z,26.30
2018-02-24T15:08:50.872Z,26.80
2018-02-24T15:11:18.992Z,27.50
2018-02-24T15:13:47.133Z,27.40
2018-02-24T15:16:15.269Z,27.40
2018-02-24T15:18:43.412Z,28.00
2018-02-24T15:21:11.528Z,28.00
2018-02-24T15:23:39.670Z,27.50
2018-02-24T15:26:07.805Z,26.30
2018-02-24T15:28:35.956Z,26.30
2018-02-24T15:31:04.106Z,26.70
2018-02-24T15:33:32.246Z,26.50
2018-02-24T15:36:01.141Z,24.80
2018-02-24T15:38:29.293Z,24.80
2018-02-24T15:40:58.198Z,22.80
2018-02-24T15:43:26.350Z,22.80
2018-02-24T15:45:54.476Z,22.50
2018-02-24T15:48:22.618Z,22.80
2018-02-24T15:50:51.505Z,22.20
2018-02-24T15:53:20.429Z,22.50
2018-02-24T15:55:48.544Z,22.40
2018-02-24T15:58:16.692Z,22.10
2018-02-24T16:00:44.817Z,22.50
2018-02-24T16:03:12.965Z,22.80
2018-02-24T16:05:41.112Z,23.00
2018-02-24T16:08:09.249Z,23.90
2018-02-24T16:10:37.392Z,24.70
2018-02-24T16:13:06.309Z,27.10
2018-02-24T16:15:34.437Z,27.10
2018-02-24T16:18:02.580Z,28.20
2018-02-24T16:20:30.705Z,28.90
2018-02-24T16:22:59.617Z,29.80
2018-02-24T16:25:27.776Z,29.70
2018-02-24T16:27:56.666Z,29.90
2018-02-24T16:30:25.565Z,30.50
2018-02-24T16:32:54.478Z,30.60
2018-02-24T16:35:22.613Z,30.60
2018-02-24T16:37:51.501Z,30.90
2018-02-24T16:40:20.430Z,31.50
2018-02-24T16:42:48.548Z,31.50
2018-02-24T16:45:16.700Z,32.30
2018-02-24T16:47:44.830Z,32.50
2018-02-24T16:50:12.974Z,32.80
2018-02-24T16:52:41.101Z,33.30
2018-02-24T16:55:09.254Z,32.80
2018-02-24T16:57:37.395Z,32.90
2018-02-24T17:00:05.541Z,33.40
2018-02-24T17:02:33.675Z,33.80
2018-02-24T17:05:01.833Z,33.10
2018-02-24T17:07:30.737Z,33.00
2018-02-24T17:09:58.972Z,33.00
2018-02-24T17:12:27.135Z,33.60
2018-02-24T17:14:55.272Z,33.40
2018-02-24T17:17:23.420Z,33.50
2018-02-24T17:19:51.544Z,33.30
2018-02-24T17:22:19.693Z,33.50
2018-02-24T17:24:47.830Z,33.80
2018-02-24T17:27:16.750Z,33.80
2018-02-24T17:29:44.881Z,33.80
2018-02-24T17:32:13.033Z,33.90
2018-02-24T17:34:41.170Z,34.40
2018-02-24T17:37:09.331Z,34.80
2018-02-24T17:39:37.468Z,35.00
2018-02-24T17:42:05.635Z,35.00
2018-02-24T17:44:33.830Z,35.30
2018-02-24T17:47:02.749Z,35.80
2018-02-24T17:49:30.896Z,35.80
2018-02-24T17:51:59.791Z,36.40
2018-02-24T17:54:28.708Z,36.20
2018-02-24T17:56:56.865Z,36.20
2018-02-24T17:59:25.018Z,36.40
2018-02-24T18:01:53.925Z,36.60
2018-02-24T18:04:22.094Z,36.50
2018-02-24T18:06:51.009Z,37.10
2018-02-24T18:09:19.164Z,37.10
2018-02-24T18:11:47.297Z,36.90
2018-02-24T18:14:15.429Z,37.40
2018-02-24T18:16:43.589Z,37.20
2018-02-24T18:19:11.729Z,37.30
2018-02-24T18:21:40.648Z,38.20
2018-02-24T18:24:08.777Z,37.50
2018-02-24T18:26:36.930Z,37.40
2018-02-24T18:29:05.072Z,37.40
2018-02-24T18:31:33.229Z,37.70
2018-02-24T18:34:02.121Z,37.90
2018-02-24T18:36:31.037Z,37.60
2018-02-24T18:38:59.187Z,37.50
2018-02-24T18:41:28.109Z,37.80
2018-02-24T18:43:57.100Z,37.80
2018-02-24T18:46:25.384Z,37.70
2018-02-24T18:48:53.518Z,38.00
2018-02-24T18:51:21.669Z,38.20
2018-02-24T18:53:49.826Z,38.20
2018-02-24T18:56:17.962Z,38.00
2018-02-24T18:58:46.119Z,38.30
2018-02-24T19:01:14.253Z,38.50
2018-02-24T19:03:42.409Z,38.50
2018-02-24T19:06:10.541Z,38.50
2018-02-24T19:08:38.697Z,38.70
2018-02-24T19:11:07.593Z,38.80
2018-02-24T19:13:35.749Z,38.80
2018-02-24T19:16:04.649Z,39.30
2018-02-24T19:18:33.561Z,39.20
2018-02-24T19:21:01.726Z,39.20
2018-02-24T19:23:29.885Z,39.70
2018-02-24T19:25:58.780Z,39.40
2018-02-24T19:28:26.940Z,39.40
2018-02-24T19:30:55.851Z,39.70
2018-02-24T19:33:23.989Z,39.60
2018-02-24T19:35:54.079Z,39.80
2018-02-24T19:38:22.205Z,40.00
2018-02-24T19:40:51.149Z,40.40
2018-02-24T19:43:19.301Z,40.40
2018-02-24T19:45:47.514Z,40.70
2018-02-24T19:48:15.702Z,40.60
2018-02-24T19:50:44.657Z,40.80
2018-02-24T19:53:12.814Z,40.80
2018-02-24T19:55:41.053Z,40.90
2018-02-24T19:58:09.993Z,41.00
2018-02-24T20:00:38.193Z,41.00
2018-02-24T20:03:06.421Z,41.00
2018-02-24T20:05:34.693Z,41.20
2018-02-24T20:08:02.854Z,41.00
2018-02-24T20:10:31.046Z,41.00
2018-02-24T20:12:59.207Z,41.00
2018-02-24T20:15:27.454Z,41.20
2018-02-24T20:17:56.377Z,41.50
2018-02-24T20:20:24.622Z,41.30
2018-02-24T20:22:53.556Z,41.70
2018-02-24T20:25:21.718Z,41.70
2018-02-24T20:27:49.910Z,41.70
2018-02-24T20:30:18.098Z,41.70
2018-02-24T20:32:46.278Z,41.90
2018-02-24T20:35:17.985Z,42.10
2018-02-24T20:37:46.226Z,42.30
2018-02-24T20:40:14.385Z,42.60
2018-02-24T20:42:42.605Z,42.70
2018-02-24T20:45:10.819Z,42.70
2018-02-24T20:47:39.005Z,42.80
2018-02-24T20:50:07.166Z,42.00
2018-02-24T20:52:35.358Z,41.80
2018-02-24T20:55:04.447Z,41.40
2018-02-24T20:57:32.674Z,41.00
2018-02-24T21:00:00.852Z,40.70
2018-02-24T21:02:29.117Z,41.60
2018-02-24T21:04:58.043Z,40.20
2018-02-24T21:07:26.317Z,40.20
2018-02-24T21:09:54.508Z,40.30
2018-02-24T21:12:22.653Z,39.90
2018-02-24T21:14:50.831Z,40.20
2018-02-24T21:17:18.997Z,39.60
2018-02-24T21:19:47.202Z,39.80
2018-02-24T21:22:15.373Z,39.70
2018-02-24T21:24:43.594Z,39.60
2018-02-24T21:27:12.500Z,40.20
2018-02-24T21:29:40.649Z,40.10
2018-02-24T21:32:09.556Z,40.70
2018-02-24T21:34:37.705Z,40.60
2018-02-24T21:37:05.845Z,40.60
2018-02-24T21:39:34.005Z,40.90
2018-02-24T21:42:02.153Z,40.90
2018-02-24T21:44:30.308Z,41.20
2018-02-24T21:46:58.436Z,40.90
2018-02-24T21:49:26.597Z,40.80
2018-02-24T21:51:54.725Z,40.70
2018-02-24T21:54:23.621Z,40.90
2018-02-24T21:56:51.791Z,40.90
2018-02-24T21:59:19.925Z,40.50
2018-02-24T22:01:48.082Z,40.70
2018-02-24T22:04:16.213Z,40.90
2018-02-24T22:06:45.151Z,41.50
2018-02-24T22:09:13.289Z,41.40
2018-02-24T22:11:42.201Z,41.10
2018-02-24T22:14:10.337Z,41.10
2018-02-24T22:16:38.492Z,41.10
2018-02-24T22:19:06.637Z,41.20
2018-02-24T22:21:34.781Z,41.90
2018-02-24T22:24:02.915Z,41.00
2018-02-24T22:26:31.061Z,41.40
2018-02-24T22:28:59.193Z,41.20
2018-02-24T22:31:27.349Z,41.40
2018-02-24T22:33:56.255Z,41.70
2018-02-24T22:36:24.434Z,41.70
2018-02-24T22:38:52.570Z,41.90
2018-02-24T22:41:20.745Z,42.30
2018-02-24T22:43:48.887Z,41.90
2018-02-24T22:46:17.032Z,42.20
2018-02-24T22:48:50.820Z,42.10
2018-02-24T22:51:19.721Z,42.30
2018-02-24T22:53:47.868Z,42.30
2018-02-24T22:56:16.774Z,42.60
2018-02-24T22:58:44.953Z,42.60
2018-02-24T23:01:13.094Z,42.90
2018-02-24T23:03:41.245Z,42.90
2018-02-24T23:06:10.318Z,43.10
2018-02-24T23:08:38.465Z,43.20
2018-02-24T23:11:06.606Z,43.90
2018-02-24T23:13:34.776Z,43.30
2018-02-24T23:16:02.913Z,43.50
2018-02-24T23:18:31.814Z,43.50
2018-02-24T23:20:59.969Z,43.40
2018-02-24T23:23:28.113Z,43.50
2018-02-24T23:25:57.046Z,44.00
2018-02-24T23:28:26.052Z,44.00
2018-02-24T23:30:54.212Z,44.10
2018-02-24T23:33:22.345Z,44.50
2018-02-24T23:35:51.273Z,44.70
2018-02-24T23:38:19.421Z,44.60
2018-02-24T23:40:47.578Z,44.70
2018-02-24T23:43:16.477Z,44.90
2018-02-24T23:45:48.617Z,44.90
2018-02-24T23:48:16.754Z,44.90
2018-02-24T23:50:44.942Z,45.30
2018-02-24T23:53:13.076Z,45.10
2018-02-24T23:55:41.230Z,45.20
2018-02-24T23:58:10.129Z,45.50
